createdAt,value
2022-11-22T00:04:18.426Z,96677.16
2022-11-22T00:09:20.234Z,96701.25
2022-11-22T00:14:22.065Z,96684.28
2022-11-22T00:19:24.073Z,96678.50
2022-11-22T00:24:25.885Z,96671.81
2022-11-22T00:29:27.977Z,96670.94
2022-11-22T00:34:29.986Z,96651.69
2022-11-22T00:39:32.581Z,96646.47
2022-11-22T00:44:34.612Z,96654.72
2022-11-22T00:49:36.419Z,96650.97
2022-11-22T00:54:38.298Z,96664.16
2022-11-22T00:59:40.078Z,96675.50
2022-11-22T01:04:41.885Z,96675.72
2022-11-22T01:09:43.673Z,96678.41
2022-11-22T01:14:45.475Z,96673.63
2022-11-22T01:19:47.355Z,96662.59
2022-11-22T01:24:49.171Z,96652.09
2022-11-22T01:29:50.996Z,96639.84
2022-11-22T01:34:52.819Z,96627.47
2022-11-22T01:39:54.811Z,96625.16
2022-11-22T01:45:38.143Z,96623.81
2022-11-22T01:50:43.967Z,96624.16
2022-11-22T01:55:46.449Z,96623.38
2022-11-22T02:00:50.332Z,96621.81
2022-11-22T02:05:53.446Z,96622.50
2022-11-22T02:10:56.647Z,96616.03
2022-11-22T02:15:59.260Z,96614.50
2022-11-22T02:21:02.240Z,96599.56
2022-11-22T02:26:04.418Z,96604.91
2022-11-22T02:31:06.416Z,96610.25
2022-11-22T02:36:11.409Z,96602.88
2022-11-22T02:41:13.184Z,96614.25
2022-11-22T02:46:20.801Z,96594.22
2022-11-22T02:51:22.717Z,96592.69
2022-11-22T02:56:24.611Z,96586.09
2022-11-22T03:01:26.506Z,96586.44
2022-11-22T03:06:28.558Z,96576.06
2022-11-22T03:11:30.309Z,96579.97
2022-11-22T03:16:32.109Z,96594.47
2022-11-22T03:21:33.889Z,96603.25
2022-11-22T03:26:36.386Z,96595.34
2022-11-22T03:31:38.164Z,96596.47
2022-11-22T03:36:40.056Z,96599.00
2022-11-22T03:41:41.904Z,96594.47
2022-11-22T03:46:43.694Z,96577.41
2022-11-22T03:51:45.520Z,96569.28
2022-11-22T03:56:47.287Z,96570.16
2022-11-22T04:01:49.278Z,96567.47
2022-11-22T04:06:51.231Z,96568.81
2022-11-22T04:11:53.011Z,96558.88
2022-11-22T04:16:54.818Z,96555.66
2022-11-22T04:21:56.632Z,96540.06
2022-11-22T04:26:58.504Z,96538.50
2022-11-22T04:32:18.936Z,96534.47
2022-11-22T04:37:20.754Z,96540.47
2022-11-22T04:42:58.522Z,96542.66
2022-11-22T04:48:00.380Z,96529.47
2022-11-22T04:53:02.213Z,96525.06
2022-11-22T04:58:04.053Z,96535.19
2022-11-22T05:03:07.197Z,96514.00
2022-11-22T05:08:09.907Z,96512.59
2022-11-22T05:13:11.720Z,96517.28
2022-11-22T05:18:14.223Z,96520.91
2022-11-22T05:23:35.415Z,96510.09
2022-11-22T05:28:38.555Z,96527.72
2022-11-22T05:33:43.064Z,96531.16
2022-11-22T05:38:44.882Z,96531.06
2022-11-22T05:43:47.082Z,96534.81
2022-11-22T05:48:48.994Z,96528.75
2022-11-22T05:53:50.966Z,96528.41
2022-11-22T05:58:53.690Z,96537.94
2022-11-22T06:03:55.564Z,96540.63
2022-11-22T06:08:59.473Z,96543.91
2022-11-22T06:14:03.542Z,96558.56
2022-11-22T06:19:05.384Z,96576.19
2022-11-22T06:24:07.941Z,96568.63
2022-11-22T06:29:09.840Z,96573.28
2022-11-22T06:34:13.169Z,96578.13
2022-11-22T06:39:14.998Z,96585.91
2022-11-22T06:44:16.987Z,96581.31
2022-11-22T06:49:18.853Z,96585.22
2022-11-22T06:54:20.662Z,96596.38
2022-11-22T06:59:22.507Z,96586.41
2022-11-22T07:04:24.346Z,96584.44
2022-11-22T07:09:26.245Z,96592.88
2022-11-22T07:14:28.039Z,96603.00
2022-11-22T07:19:30.181Z,96606.53
2022-11-22T07:24:32.258Z,96608.72
2022-11-22T07:29:34.061Z,96603.78
2022-11-22T07:34:35.892Z,96606.63
2022-11-22T07:39:37.685Z,96618.22
2022-11-22T07:44:39.563Z,96625.84
2022-11-22T07:49:41.472Z,96630.75
2022-11-22T07:54:43.306Z,96620.13
2022-11-22T07:59:45.198Z,96618.66
2022-11-22T08:04:46.995Z,96624.44
2022-11-22T08:09:48.814Z,96632.56
2022-11-22T08:14:50.689Z,96644.59
2022-11-22T08:19:53.630Z,96643.22
2022-11-22T08:24:55.863Z,96645.28
2022-11-22T08:29:57.919Z,96647.06
2022-11-22T08:34:59.769Z,96660.72
2022-11-22T08:40:02.150Z,96658.63
2022-11-22T08:45:05.771Z,96667.97
2022-11-22T08:50:08.283Z,96678.00
2022-11-22T08:55:10.178Z,96684.28
2022-11-22T09:00:12.538Z,96687.03
2022-11-22T09:05:14.485Z,96689.88
2022-11-22T09:10:16.402Z,96688.06
2022-11-22T09:15:18.466Z,96688.22
2022-11-22T09:20:20.265Z,96700.94
2022-11-22T09:25:22.493Z,96724.81
2022-11-22T09:30:24.349Z,96721.69
2022-11-22T09:35:26.247Z,96714.16
2022-11-22T09:40:29.468Z,96717.47
2022-11-22T09:46:08.863Z,96713.19
2022-11-22T09:51:24.224Z,96700.38
2022-11-22T09:56:28.264Z,96700.66
2022-11-22T10:01:48.165Z,96707.03
2022-11-22T10:06:55.898Z,96718.63
2022-11-22T10:12:16.167Z,96732.06
2022-11-22T10:17:18.669Z,96734.16
2022-11-22T10:22:21.526Z,96737.78
2022-11-22T10:27:31.761Z,96744.47
2022-11-22T10:33:10.990Z,96743.72
2022-11-22T10:38:22.134Z,96749.97
2022-11-22T10:43:53.147Z,96726.31
2022-11-22T10:49:17.428Z,96721.56
2022-11-22T10:54:27.980Z,96733.38
2022-11-22T10:59:58.095Z,96737.03
2022-11-22T11:05:07.361Z,96745.09
2022-11-22T11:10:29.202Z,96740.94
2022-11-22T11:15:44.547Z,96752.97
2022-11-22T11:20:49.860Z,96736.50
2022-11-22T11:25:52.863Z,96735.75
2022-11-22T11:31:10.891Z,96729.41
2022-11-22T11:36:22.381Z,96727.16
2022-11-22T11:41:40.296Z,96716.63
2022-11-22T11:46:49.480Z,96712.38
2022-11-22T11:52:16.583Z,96708.47
2022-11-22T11:57:34.402Z,96709.16
2022-11-22T12:02:41.258Z,96703.06
2022-11-22T12:07:46.856Z,96712.28
2022-11-22T12:13:04.645Z,96711.78
2022-11-22T12:18:32.424Z,96712.06
2022-11-22T12:24:13.233Z,96718.94
2022-11-22T12:29:18.433Z,96730.38
2022-11-22T12:34:47.348Z,96721.78
2022-11-22T12:39:52.201Z,96719.91
2022-11-22T12:45:04.625Z,96729.53
2022-11-22T12:50:17.182Z,96719.16
2022-11-22T12:55:27.017Z,96709.53
2022-11-22T13:00:35.344Z,96711.91
2022-11-22T13:05:43.715Z,96719.59
2022-11-22T13:10:51.635Z,96714.22
2022-11-22T13:15:57.326Z,96719.47
2022-11-22T13:21:11.363Z,96731.38
2022-11-22T13:26:22.959Z,96721.78
2022-11-22T13:31:25.108Z,96724.16
2022-11-22T13:36:29.943Z,96719.97
2022-11-22T13:41:34.569Z,96723.44
2022-11-22T13:46:58.271Z,96711.94
2022-11-22T13:52:05.207Z,96712.00
2022-11-22T13:57:25.620Z,96722.00
2022-11-22T14:02:27.521Z,96723.53
2022-11-22T14:07:37.482Z,96713.63
2022-11-22T14:12:54.354Z,96713.66
2022-11-22T14:18:13.198Z,96719.00
2022-11-22T14:23:39.352Z,96713.63
2022-11-22T14:29:18.875Z,96708.34
2022-11-22T14:34:23.017Z,96722.91
2022-11-22T14:39:37.252Z,96720.22
2022-11-22T14:44:40.476Z,96716.72
2022-11-22T14:49:46.432Z,96720.50
2022-11-22T14:54:52.475Z,96718.16
2022-11-22T15:00:02.922Z,96713.91
2022-11-22T15:09:23.700Z,96722.28
2022-11-22T15:11:38.872Z,96724.84
2022-11-22T16:00:27.168Z,96777.06
2022-11-22T16:06:09.035Z,96779.44
2022-11-22T16:10:56.848Z,96781.78
2022-11-22T16:16:19.989Z,96780.22
2022-11-22T16:21:29.380Z,96773.34
2022-11-22T16:26:31.269Z,96767.19
2022-11-22T16:31:33.353Z,96768.44
2022-11-22T16:36:35.141Z,96773.53
2022-11-22T16:41:37.085Z,96775.00
2022-11-22T16:46:40.662Z,96785.50
2022-11-22T16:51:44.828Z,96802.97
2022-11-22T16:56:46.948Z,96805.03
2022-11-22T17:01:49.495Z,96814.81
2022-11-22T17:06:52.328Z,96816.66
2022-11-22T17:11:55.102Z,96837.75
2022-11-22T17:16:56.941Z,96848.94
2022-11-22T17:21:58.951Z,96845.13
2022-11-22T17:27:00.826Z,96839.38
2022-11-22T17:32:02.763Z,96844.81
2022-11-22T17:37:04.728Z,96848.28
2022-11-22T17:42:06.972Z,96840.16
2022-11-22T17:47:09.018Z,96866.34
2022-11-22T17:52:10.967Z,96862.75
2022-11-22T17:57:13.576Z,96871.97
2022-11-22T18:02:15.951Z,96884.91
2022-11-22T18:07:17.862Z,96885.50
2022-11-22T18:12:20.068Z,96885.50
2022-11-22T18:17:21.908Z,96882.16
2022-11-22T18:22:23.716Z,96874.84
2022-11-22T18:27:25.514Z,96880.81
2022-11-22T18:32:27.940Z,96876.84
2022-11-22T18:37:29.759Z,96888.31
2022-11-22T18:42:32.365Z,96902.00
2022-11-22T18:47:34.586Z,96904.59
2022-11-22T18:52:38.312Z,96911.88
2022-11-22T18:57:40.145Z,96915.78
2022-11-22T19:02:41.960Z,96916.19
2022-11-22T19:07:43.823Z,96923.59
2022-11-22T19:12:45.851Z,96909.28
2022-11-22T19:17:47.673Z,96909.78
2022-11-22T19:22:50.254Z,96910.41
2022-11-22T19:27:52.067Z,96926.53
2022-11-22T19:32:56.129Z,96922.63
2022-11-22T19:37:57.943Z,96936.84
2022-11-22T19:42:59.779Z,96945.06
2022-11-22T19:48:01.585Z,96955.19
2022-11-22T19:53:03.663Z,96962.16
2022-11-22T19:58:06.612Z,96963.34
2022-11-22T20:03:12.760Z,96959.63
2022-11-22T20:08:14.563Z,96961.63
2022-11-22T20:13:16.586Z,96963.97
2022-11-22T20:18:18.413Z,96966.31
2022-11-22T20:23:20.222Z,96958.66
2022-11-22T20:28:22.025Z,96971.75
2022-11-22T20:33:23.872Z,96967.94
2022-11-22T20:38:25.757Z,96968.75
2022-11-22T20:43:28.416Z,96972.97
2022-11-22T20:48:31.738Z,96970.97
2022-11-22T20:53:34.033Z,96974.78
2022-11-22T20:58:36.136Z,96979.66
2022-11-22T21:03:38.058Z,96971.47
2022-11-22T21:08:40.293Z,96963.88
2022-11-22T21:13:42.925Z,96965.69
2022-11-22T21:18:44.817Z,96972.09
2022-11-22T21:23:46.601Z,96967.25
2022-11-22T21:28:49.083Z,96970.03
2022-11-22T21:33:51.609Z,96974.78
2022-11-22T21:38:53.457Z,96971.47
2022-11-22T21:43:56.176Z,96982.44
2022-11-22T21:48:58.052Z,96987.81
2022-11-22T21:54:01.493Z,96986.06
2022-11-22T21:59:03.419Z,96989.00
2022-11-22T22:04:05.564Z,96975.91
2022-11-22T22:09:07.430Z,96984.75
2022-11-22T22:14:09.878Z,96979.81
2022-11-22T22:19:11.730Z,96983.97
2022-11-22T22:24:13.875Z,96985.63
2022-11-22T22:29:15.741Z,96991.78
2022-11-22T22:34:18.380Z,96985.72
2022-11-22T22:39:20.250Z,96989.53
2022-11-22T22:44:22.273Z,96996.47
2022-11-22T22:49:24.064Z,96994.19
2022-11-22T22:54:25.887Z,97002.72
2022-11-22T22:59:27.782Z,97001.84
2022-11-22T23:04:29.710Z,96989.34
2022-11-22T23:09:32.319Z,96997.66
2022-11-22T23:14:34.465Z,96999.81
2022-11-22T23:19:36.397Z,96999.72
2022-11-22T23:24:38.315Z,96995.06
2022-11-22T23:29:40.248Z,96992.13
2022-11-22T23:34:42.214Z,96993.69
2022-11-22T23:39:44.121Z,96999.41
2022-11-22T23:44:46.095Z,96999.72
2022-11-22T23:49:48.426Z,97006.56
2022-11-22T23:54:50.404Z,97006.50
2022-11-22T23:59:52.291Z,97015.06
